sensor_id;sensor_type;location;lat;lon;timestamp;pressure;altitude;pressure_sealevel;temperature;humidity
39301;BME280;25019;42.626;23.380;2022-12-29T00:01:32;95369.53;;;3.86;100.00
39301;BME280;25019;42.626;23.380;2022-12-29T00:03:58;95359.19;;;3.84;100.00
39301;BME280;25019;42.626;23.380;2022-12-29T00:06:24;95353.94;;;3.84;100.00
39301;BME280;25019;42.626;23.380;2022-12-29T00:08:50;95278.94;;;3.37;100.00
39301;BME280;25019;42.626;23.380;2022-12-29T00:11:24;95235.22;;;2.99;100.00
39301;BME280;25019;42.626;23.380;2022-12-29T00:13:51;95210.41;;;2.87;100.00
39301;BME280;25019;42.626;23.380;2022-12-29T00:16:36;95365.63;;;3.82;100.00
39301;BME280;25019;42.626;23.380;2022-12-29T00:19:03;95354.84;;;3.77;100.00
39301;BME280;25019;42.626;23.380;2022-12-29T00:21:29;95364.00;;;3.81;100.00
39301;BME280;25019;42.626;23.380;2022-12-29T00:24:21;95365.16;;;3.78;100.00
39301;BME280;25019;42.626;23.380;2022-12-29T00:27:10;95248.25;;;3.07;100.00
39301;BME280;25019;42.626;23.380;2022-12-29T00:29:55;95369.25;;;3.81;100.00
39301;BME280;25019;42.626;23.380;2022-12-29T00:32:39;95349.69;;;3.68;100.00
39301;BME280;25019;42.626;23.380;2022-12-29T00:35:42;95364.63;;;3.83;100.00
39301;BME280;25019;42.626;23.380;2022-12-29T00:38:10;95328.59;;;3.62;100.00
39301;BME280;25019;42.626;23.380;2022-12-29T00:40:56;95347.53;;;3.72;100.00
39301;BME280;25019;42.626;23.380;2022-12-29T00:43:40;95361.38;;;3.81;100.00
39301;BME280;25019;42.626;23.380;2022-12-29T00:46:24;95359.09;;;3.78;100.00
39301;BME280;25019;42.626;23.380;2022-12-29T00:48:49;95370.63;;;3.77;100.00
39301;BME280;25019;42.626;23.380;2022-12-29T00:51:34;95307.00;;;3.36;100.00
39301;BME280;25019;42.626;23.380;2022-12-29T00:53:59;95360.19;;;3.68;100.00
39301;BME280;25019;42.626;23.380;2022-12-29T00:56:25;95370.41;;;3.78;100.00
39301;BME280;25019;42.626;23.380;2022-12-29T00:58:50;95317.50;;;3.36;100.00
39301;BME280;25019;42.626;23.380;2022-12-29T01:01:16;95364.81;;;3.66;100.00
39301;BME280;25019;42.626;23.380;2022-12-29T01:03:42;95358.03;;;3.57;100.00
39301;BME280;25019;42.626;23.380;2022-12-29T01:06:09;95368.06;;;3.53;100.00
39301;BME280;25019;42.626;23.380;2022-12-29T01:08:36;95368.53;;;3.57;100.00
39301;BME280;25019;42.626;23.380;2022-12-29T01:11:07;95365.91;;;3.57;100.00
39301;BME280;25019;42.626;23.380;2022-12-29T01:13:33;95363.63;;;3.54;100.00
39301;BME280;25019;42.626;23.380;2022-12-29T01:15:59;95353.94;;;3.54;100.00
39301;BME280;25019;42.626;23.380;2022-12-29T01:18:25;95355.66;;;3.47;100.00
39301;BME280;25019;42.626;23.380;2022-12-29T01:20:51;95359.66;;;3.43;100.00
39301;BME280;25019;42.626;23.380;2022-12-29T01:23:23;95356.81;;;3.44;100.00
39301;BME280;25019;42.626;23.380;2022-12-29T01:25:49;95324.47;;;3.14;100.00
39301;BME280;25019;42.626;23.380;2022-12-29T01:28:14;95363.53;;;3.32;100.00
39301;BME280;25019;42.626;23.380;2022-12-29T01:30:40;95355.19;;;3.28;100.00
39301;BME280;25019;42.626;23.380;2022-12-29T01:33:05;95358.16;;;3.25;100.00
39301;BME280;25019;42.626;23.380;2022-12-29T01:35:31;95283.97;;;2.78;100.00
39301;BME280;25019;42.626;23.380;2022-12-29T01:37:57;95331.88;;;3.10;100.00
39301;BME280;25019;42.626;23.380;2022-12-29T01:40:23;95332.72;;;3.11;100.00
39301;BME280;25019;42.626;23.380;2022-12-29T01:42:49;95252.88;;;2.52;100.00
39301;BME280;25019;42.626;23.380;2022-12-29T01:45:17;95330.06;;;2.96;100.00
39301;BME280;25019;42.626;23.380;2022-12-29T01:50:17;95343.22;;;3.11;100.00
39301;BME280;25019;42.626;23.380;2022-12-29T01:52:56;95338.59;;;3.13;100.00
39301;BME280;25019;42.626;23.380;2022-12-29T01:55:26;95272.53;;;2.71;100.00
39301;BME280;25019;42.626;23.380;2022-12-29T01:57:53;95311.13;;;3.00;100.00
39301;BME280;25019;42.626;23.380;2022-12-29T02:00:21;95342.22;;;3.12;100.00
39301;BME280;25019;42.626;23.380;2022-12-29T02:02:53;95314.75;;;2.99;100.00
39301;BME280;25019;42.626;23.380;2022-12-29T02:05:39;95336.25;;;3.18;100.00
39301;BME280;25019;42.626;23.380;2022-12-29T02:08:12;95329.25;;;3.10;100.00
39301;BME280;25019;42.626;23.380;2022-12-29T02:10:39;95313.75;;;3.00;100.00
39301;BME280;25019;42.626;23.380;2022-12-29T02:13:06;95315.09;;;2.96;100.00
39301;BME280;25019;42.626;23.380;2022-12-29T02:24:35;95260.88;;;2.74;100.00
39301;BME280;25019;42.626;23.380;2022-12-29T02:33:11;95325.50;;;3.28;100.00
39301;BME280;25019;42.626;23.380;2022-12-29T02:38:39;95315.72;;;3.37;100.00
39301;BME280;25019;42.626;23.380;2022-12-29T02:41:19;95250.97;;;2.99;100.00
39301;BME280;25019;42.626;23.380;2022-12-29T02:49:12;95286.81;;;3.22;100.00
39301;BME280;25019;42.626;23.380;2022-12-29T02:51:55;95293.50;;;3.24;100.00
39301;BME280;25019;42.626;23.380;2022-12-29T02:54:23;95286.63;;;3.23;100.00
39301;BME280;25019;42.626;23.380;2022-12-29T02:59:40;95314.53;;;3.39;100.00
39301;BME280;25019;42.626;23.380;2022-12-29T03:08:02;95307.41;;;3.48;100.00
39301;BME280;25019;42.626;23.380;2022-12-29T03:10:41;95306.94;;;3.44;100.00
39301;BME280;25019;42.626;23.380;2022-12-29T03:19:36;95314.34;;;3.26;100.00
39301;BME280;25019;42.626;23.380;2022-12-29T03:22:13;95305.28;;;3.13;100.00
39301;BME280;25019;42.626;23.380;2022-12-29T03:25:09;95305.91;;;3.15;100.00
39301;BME280;25019;42.626;23.380;2022-12-29T03:27:47;95259.25;;;2.73;100.00
39301;BME280;25019;42.626;23.380;2022-12-29T03:30:13;95241.41;;;2.68;100.00
39301;BME280;25019;42.626;23.380;2022-12-29T03:33:01;95311.63;;;3.04;100.00
39301;BME280;25019;42.626;23.380;2022-12-29T03:35:33;95305.09;;;3.00;100.00
39301;BME280;25019;42.626;23.380;2022-12-29T03:38:13;95308.13;;;2.89;100.00
39301;BME280;25019;42.626;23.380;2022-12-29T03:40:43;95302.88;;;2.89;100.00
39301;BME280;25019;42.626;23.380;2022-12-29T03:43:11;95310.31;;;2.85;100.00
39301;BME280;25019;42.626;23.380;2022-12-29T03:45:38;95248.91;;;2.33;100.00
39301;BME280;25019;42.626;23.380;2022-12-29T03:48:04;95315.81;;;2.75;100.00
39301;BME280;25019;42.626;23.380;2022-12-29T03:50:30;95295.47;;;2.54;100.00
39301;BME280;25019;42.626;23.380;2022-12-29T03:52:57;95260.97;;;2.19;100.00
39301;BME280;25019;42.626;23.380;2022-12-29T03:55:24;95312.34;;;2.51;100.00
39301;BME280;25019;42.626;23.380;2022-12-29T03:57:50;95248.88;;;1.94;100.00
39301;BME280;25019;42.626;23.380;2022-12-29T04:00:22;95295.53;;;1.91;100.00
39301;BME280;25019;42.626;23.380;2022-12-29T04:02:49;95303.25;;;1.92;100.00
39301;BME280;25019;42.626;23.380;2022-12-29T04:05:19;95335.91;;;2.05;100.00
39301;BME280;25019;42.626;23.380;2022-12-29T04:07:47;95298.72;;;1.78;100.00
39301;BME280;25019;42.626;23.380;2022-12-29T04:10:13;95335.59;;;2.00;100.00
39301;BME280;25019;42.626;23.380;2022-12-29T04:12:40;95324.88;;;1.86;100.00
39301;BME280;25019;42.626;23.380;2022-12-29T04:15:08;95262.50;;;1.50;100.00
39301;BME280;25019;42.626;23.380;2022-12-29T04:17:34;95328.94;;;1.89;100.00
39301;BME280;25019;42.626;23.380;2022-12-29T04:19:59;95317.22;;;1.76;100.00
39301;BME280;25019;42.626;23.380;2022-12-29T04:22:44;95266.78;;;1.43;100.00
39301;BME280;25019;42.626;23.380;2022-12-29T04:25:10;95336.88;;;1.81;100.00
39301;BME280;25019;42.626;23.380;2022-12-29T04:27:35;95324.28;;;1.68;100.00
39301;BME280;25019;42.626;23.380;2022-12-29T04:30:17;95244.47;;;1.15;100.00
39301;BME280;25019;42.626;23.380;2022-12-29T04:33:18;95288.06;;;1.40;100.00
39301;BME280;25019;42.626;23.380;2022-12-29T04:35:44;95204.16;;;0.85;100.00
39301;BME280;25019;42.626;23.380;2022-12-29T04:38:11;95337.88;;;1.71;100.00
39301;BME280;25019;42.626;23.380;2022-12-29T04:40:42;95329.03;;;1.64;100.00
39301;BME280;25019;42.626;23.380;2022-12-29T04:43:09;95347.34;;;1.72;100.00
39301;BME280;25019;42.626;23.380;2022-12-29T04:45:47;95344.91;;;1.71;100.00
39301;BME280;25019;42.626;23.380;2022-12-29T04:48:27;95353.06;;;1.76;100.00
39301;BME280;25019;42.626;23.380;2022-12-29T04:51:20;95347.69;;;1.77;100.00
39301;BME280;25019;42.626;23.380;2022-12-29T04:53:45;95341.13;;;1.73;100.00
39301;BME280;25019;42.626;23.380;2022-12-29T04:56:11;95296.72;;;1.40;100.00
39301;BME280;25019;42.626;23.380;2022-12-29T04:58:37;95351.06;;;1.86;100.00
39301;BME280;25019;42.626;23.380;2022-12-29T05:01:03;95360.03;;;1.92;100.00
39301;BME280;25019;42.626;23.380;2022-12-29T05:03:30;95362.31;;;1.95;100.00
39301;BME280;25019;42.626;23.380;2022-12-29T05:05:56;95294.22;;;1.63;100.00
39301;BME280;25019;42.626;23.380;2022-12-29T05:08:23;95267.75;;;1.42;100.00
39301;BME280;25019;42.626;23.380;2022-12-29T05:10:51;95334.50;;;1.94;100.00
39301;BME280;25019;42.626;23.380;2022-12-29T05:13:17;95352.94;;;2.09;100.00
39301;BME280;25019;42.626;23.380;2022-12-29T05:15:51;95345.25;;;2.07;100.00
39301;BME280;25019;42.626;23.380;2022-12-29T05:18:17;95364.66;;;2.21;100.00
39301;BME280;25019;42.626;23.380;2022-12-29T05:20:43;95351.38;;;2.23;100.00
39301;BME280;25019;42.626;23.380;2022-12-29T05:23:08;95363.47;;;2.32;100.00
39301;BME280;25019;42.626;23.380;2022-12-29T05:25:34;95255.69;;;1.72;100.00
39301;BME280;25019;42.626;23.380;2022-12-29T05:28:16;95357.81;;;2.44;100.00
39301;BME280;25019;42.626;23.380;2022-12-29T05:30:52;95364.34;;;2.48;100.00
39301;BME280;25019;42.626;23.380;2022-12-29T05:33:19;95359.56;;;2.51;100.00
39301;BME280;25019;42.626;23.380;2022-12-29T05:35:46;95352.19;;;2.55;100.00
39301;BME280;25019;42.626;23.380;2022-12-29T05:38:12;95287.53;;;2.16;100.00
39301;BME280;25019;42.626;23.380;2022-12-29T05:40:38;95365.50;;;2.68;100.00
39301;BME280;25019;42.626;23.380;2022-12-29T05:43:15;95353.22;;;2.69;100.00
39301;BME280;25019;42.626;23.380;2022-12-29T05:46:01;95361.66;;;2.79;100.00
39301;BME280;25019;42.626;23.380;2022-12-29T05:48:39;95311.09;;;2.47;100.00
39301;BME280;25019;42.626;23.380;2022-12-29T05:51:27;95363.59;;;2.85;100.00
39301;BME280;25019;42.626;23.380;2022-12-29T05:53:53;95368.03;;;2.85;100.00
39301;BME280;25019;42.626;23.380;2022-12-29T05:56:19;95370.47;;;2.87;100.00
39301;BME280;25019;42.626;23.380;2022-12-29T05:58:51;95315.47;;;2.55;100.00
39301;BME280;25019;42.626;23.380;2022-12-29T06:01:17;95376.75;;;3.00;100.00
39301;BME280;25019;42.626;23.380;2022-12-29T06:03:43;95376.06;;;3.07;100.00
39301;BME280;25019;42.626;23.380;2022-12-29T06:06:09;95383.88;;;3.15;100.00
39301;BME280;25019;42.626;23.380;2022-12-29T06:08:36;95367.38;;;3.06;100.00
39301;BME280;25019;42.626;23.380;2022-12-29T06:11:02;95378.34;;;3.25;100.00
39301;BME280;25019;42.626;23.380;2022-12-29T06:13:28;95375.03;;;3.31;100.00
39301;BME280;25019;42.626;23.380;2022-12-29T06:15:55;95382.00;;;3.39;100.00
39301;BME280;25019;42.626;23.380;2022-12-29T06:18:21;95304.16;;;2.93;100.00
39301;BME280;25019;42.626;23.380;2022-12-29T06:20:47;95361.25;;;3.29;100.00
39301;BME280;25019;42.626;23.380;2022-12-29T06:23:15;95381.94;;;3.47;100.00
39301;BME280;25019;42.626;23.380;2022-12-29T06:25:41;95374.31;;;3.52;100.00
39301;BME280;25019;42.626;23.380;2022-12-29T06:28:07;95385.16;;;3.49;100.00
39301;BME280;25019;42.626;23.380;2022-12-29T06:30:33;95384.09;;;3.43;100.00
39301;BME280;25019;42.626;23.380;2022-12-29T06:33:00;95379.31;;;3.47;100.00
39301;BME280;25019;42.626;23.380;2022-12-29T06:35:26;95385.16;;;3.49;100.00
39301;BME280;25019;42.626;23.380;2022-12-29T06:37:51;95384.38;;;3.49;100.00
39301;BME280;25019;42.626;23.380;2022-12-29T06:40:17;95338.13;;;3.09;100.00
39301;BME280;25019;42.626;23.380;2022-12-29T06:43:10;95313.22;;;2.90;100.00
39301;BME280;25019;42.626;23.380;2022-12-29T06:45:43;95381.19;;;3.38;100.00
39301;BME280;25019;42.626;23.380;2022-12-29T06:48:09;95383.63;;;3.40;100.00
39301;BME280;25019;42.626;23.380;2022-12-29T06:50:35;95376.38;;;3.27;100.00
39301;BME280;25019;42.626;23.380;2022-12-29T06:53:00;95324.16;;;2.94;100.00
39301;BME280;25019;42.626;23.380;2022-12-29T06:55:26;95325.53;;;3.05;100.00
39301;BME280;25019;42.626;23.380;2022-12-29T06:57:54;95378.91;;;3.35;100.00
39301;BME280;25019;42.626;23.380;2022-12-29T07:00:21;95388.75;;;3.18;100.00
39301;BME280;25019;42.626;23.380;2022-12-29T07:02:46;95404.00;;;3.38;100.00
39301;BME280;25019;42.626;23.380;2022-12-29T07:05:12;95408.34;;;3.45;100.00
39301;BME280;25019;42.626;23.380;2022-12-29T07:07:39;95400.38;;;3.39;100.00
39301;BME280;25019;42.626;23.380;2022-12-29T07:10:05;95401.47;;;3.44;100.00
39301;BME280;25019;42.626;23.380;2022-12-29T07:12:30;95394.44;;;3.45;100.00
39301;BME280;25019;42.626;23.380;2022-12-29T07:14:56;95396.78;;;3.55;100.00
39301;BME280;25019;42.626;23.380;2022-12-29T07:17:21;95395.97;;;3.54;100.00
39301;BME280;25019;42.626;23.380;2022-12-29T07:19:47;95398.44;;;3.56;100.00
39301;BME280;25019;42.626;23.380;2022-12-29T07:22:13;95402.78;;;3.64;100.00
39301;BME280;25019;42.626;23.380;2022-12-29T07:24:38;95397.31;;;3.65;100.00
39301;BME280;25019;42.626;23.380;2022-12-29T07:27:04;95388.19;;;3.61;100.00
39301;BME280;25019;42.626;23.380;2022-12-29T07:29:29;95388.00;;;3.63;100.00
39301;BME280;25019;42.626;23.380;2022-12-29T07:31:55;95386.00;;;3.65;100.00
39301;BME280;25019;42.626;23.380;2022-12-29T07:34:21;95394.34;;;3.68;100.00
39301;BME280;25019;42.626;23.380;2022-12-29T07:36:46;95404.97;;;3.75;100.00
39301;BME280;25019;42.626;23.380;2022-12-29T07:39:12;95394.47;;;3.75;100.00
39301;BME280;25019;42.626;23.380;2022-12-29T07:41:38;95398.59;;;3.69;100.00
39301;BME280;25019;42.626;23.380;2022-12-29T07:44:03;95396.88;;;3.77;100.00
39301;BME280;25019;42.626;23.380;2022-12-29T07:46:34;95394.34;;;3.83;100.00
39301;BME280;25019;42.626;23.380;2022-12-29T07:49:00;95396.63;;;3.86;100.00
39301;BME280;25019;42.626;23.380;2022-12-29T07:51:25;95343.91;;;3.58;100.00
39301;BME280;25019;42.626;23.380;2022-12-29T07:53:51;95393.44;;;3.91;100.00
39301;BME280;25019;42.626;23.380;2022-12-29T07:56:16;95339.91;;;3.62;100.00
39301;BME280;25019;42.626;23.380;2022-12-29T07:58:42;95400.31;;;4.07;100.00
39301;BME280;25019;42.626;23.380;2022-12-29T08:01:08;95401.88;;;4.01;100.00
39301;BME280;25019;42.626;23.380;2022-12-29T08:03:33;95397.88;;;4.05;100.00
39301;BME280;25019;42.626;23.380;2022-12-29T08:05:59;95321.06;;;3.58;100.00
39301;BME280;25019;42.626;23.380;2022-12-29T08:08:25;95404.75;;;4.22;100.00
39301;BME280;25019;42.626;23.380;2022-12-29T08:10:50;95412.91;;;4.27;100.00
39301;BME280;25019;42.626;23.380;2022-12-29T08:13:16;95414.34;;;4.29;100.00
39301;BME280;25019;42.626;23.380;2022-12-29T08:15:41;95403.84;;;4.29;100.00
39301;BME280;25019;42.626;23.380;2022-12-29T08:18:07;95407.94;;;4.32;100.00
39301;BME280;25019;42.626;23.380;2022-12-29T08:20:33;95405.53;;;4.37;100.00
39301;BME280;25019;42.626;23.380;2022-12-29T08:22:58;95298.97;;;3.68;100.00
39301;BME280;25019;42.626;23.380;2022-12-29T08:25:24;95409.06;;;4.44;100.00
39301;BME280;25019;42.626;23.380;2022-12-29T08:27:49;95336.50;;;3.98;100.00
39301;BME280;25019;42.626;23.380;2022-12-29T08:30:15;95408.44;;;4.42;100.00
39301;BME280;25019;42.626;23.380;2022-12-29T08:32:41;95395.91;;;4.44;100.00
39301;BME280;25019;42.626;23.380;2022-12-29T08:35:08;95387.91;;;4.53;100.00
39301;BME280;25019;42.626;23.380;2022-12-29T08:37:33;95403.78;;;4.59;100.00
39301;BME280;25019;42.626;23.380;2022-12-29T08:39:59;95397.94;;;4.64;100.00
39301;BME280;25019;42.626;23.380;2022-12-29T08:42:30;95341.63;;;4.37;100.00
39301;BME280;25019;42.626;23.380;2022-12-29T08:44:57;95391.19;;;4.76;100.00
39301;BME280;25019;42.626;23.380;2022-12-29T08:47:23;95389.56;;;4.75;100.00
39301;BME280;25019;42.626;23.380;2022-12-29T08:49:49;95396.53;;;4.83;100.00
39301;BME280;25019;42.626;23.380;2022-12-29T08:52:14;95402.03;;;4.88;100.00
39301;BME280;25019;42.626;23.380;2022-12-29T08:54:40;95390.25;;;4.84;100.00
39301;BME280;25019;42.626;23.380;2022-12-29T08:57:05;95397.22;;;4.92;100.00
39301;BME280;25019;42.626;23.380;2022-12-29T08:59:37;95383.88;;;4.93;100.00
39301;BME280;25019;42.626;23.380;2022-12-29T09:02:03;95398.94;;;5.00;100.00
39301;BME280;25019;42.626;23.380;2022-12-29T09:04:28;95390.81;;;5.01;100.00
39301;BME280;25019;42.626;23.380;2022-12-29T09:06:54;95394.78;;;4.90;100.00
39301;BME280;25019;42.626;23.380;2022-12-29T09:09:20;95267.25;;;4.06;100.00
39301;BME280;25019;42.626;23.380;2022-12-29T09:11:46;95352.41;;;4.63;100.00
39301;BME280;25019;42.626;23.380;2022-12-29T09:14:12;95389.88;;;4.87;100.00
39301;BME280;25019;42.626;23.380;2022-12-29T09:16:38;95291.53;;;4.45;100.00
39301;BME280;25019;42.626;23.380;2022-12-29T09:19:04;95367.44;;;4.91;100.00
39301;BME280;25019;42.626;23.380;2022-12-29T09:21:30;95371.44;;;5.09;100.00
39301;BME280;25019;42.626;23.380;2022-12-29T09:23:56;95377.25;;;5.26;100.00
39301;BME280;25019;42.626;23.380;2022-12-29T09:26:22;95374.44;;;5.28;100.00
39301;BME280;25019;42.626;23.380;2022-12-29T09:28:47;95372.66;;;5.35;100.00
39301;BME280;25019;42.626;23.380;2022-12-29T09:31:13;95374.56;;;5.48;100.00
39301;BME280;25019;42.626;23.380;2022-12-29T09:33:39;95372.38;;;5.51;100.00
39301;BME280;25019;42.626;23.380;2022-12-29T09:36:05;95341.66;;;5.37;100.00
39301;BME280;25019;42.626;23.380;2022-12-29T09:38:31;95367.91;;;5.52;100.00
39301;BME280;25019;42.626;23.380;2022-12-29T09:41:01;95320.56;;;5.30;100.00
39301;BME280;25019;42.626;23.380;2022-12-29T09:46:26;95354.25;;;5.70;100.00
39301;BME280;25019;42.626;23.380;2022-12-29T09:51:48;95356.50;;;5.73;100.00
39301;BME280;25019;42.626;23.380;2022-12-29T09:56:43;95341.09;;;5.77;100.00
39301;BME280;25019;42.626;23.380;2022-12-29T09:59:14;95347.38;;;5.76;100.00
39301;BME280;25019;42.626;23.380;2022-12-29T10:01:44;95296.13;;;5.43;100.00
39301;BME280;25019;42.626;23.380;2022-12-29T10:04:11;95338.94;;;5.87;100.00
39301;BME280;25019;42.626;23.380;2022-12-29T10:07:00;95333.03;;;5.85;100.00
39301;BME280;25019;42.626;23.380;2022-12-29T10:09:46;95334.88;;;5.84;100.00
39301;BME280;25019;42.626;23.380;2022-12-29T10:25:55;95319.69;;;6.35;100.00
39301;BME280;25019;42.626;23.380;2022-12-29T10:28:37;95293.69;;;6.25;100.00
39301;BME280;25019;42.626;23.380;2022-12-29T10:31:11;95319.69;;;6.49;100.00
39301;BME280;25019;42.626;23.380;2022-12-29T10:33:41;95318.28;;;6.39;100.00
39301;BME280;25019;42.626;23.380;2022-12-29T10:36:20;95315.63;;;6.39;100.00
39301;BME280;25019;42.626;23.380;2022-12-29T10:38:58;95314.41;;;6.49;100.00
39301;BME280;25019;42.626;23.380;2022-12-29T10:41:41;95265.06;;;6.36;100.00
39301;BME280;25019;42.626;23.380;2022-12-29T10:44:13;95305.13;;;6.73;100.00
39301;BME280;25019;42.626;23.380;2022-12-29T10:46:41;95307.34;;;6.69;100.00
39301;BME280;25019;42.626;23.380;2022-12-29T10:49:15;95305.13;;;6.66;100.00
39301;BME280;25019;42.626;23.380;2022-12-29T10:51:44;95300.44;;;6.62;100.00
39301;BME280;25019;42.626;23.380;2022-12-29T10:56:46;95293.75;;;6.59;100.00
39301;BME280;25019;42.626;23.380;2022-12-29T10:59:22;95208.63;;;6.17;100.00
39301;BME280;25019;42.626;23.380;2022-12-29T11:04:39;95285.84;;;6.86;98.66
39301;BME280;25019;42.626;23.380;2022-12-29T11:07:09;95266.97;;;6.89;98.34
39301;BME280;25019;42.626;23.380;2022-12-29T11:09:37;95271.22;;;6.97;97.66
39301;BME280;25019;42.626;23.380;2022-12-29T11:12:25;95266.94;;;7.02;97.90
39301;BME280;25019;42.626;23.380;2022-12-29T11:15:20;95260.44;;;7.12;96.78
39301;BME280;25019;42.626;23.380;2022-12-29T11:17:50;95262.44;;;7.16;96.90
39301;BME280;25019;42.626;23.380;2022-12-29T11:20:35;95249.44;;;7.22;96.57
39301;BME280;25019;42.626;23.380;2022-12-29T11:23:02;95248.81;;;7.26;95.56
39301;BME280;25019;42.626;23.380;2022-12-29T11:25:28;95256.56;;;7.21;96.08
39301;BME280;25019;42.626;23.380;2022-12-29T11:27:56;95254.09;;;7.26;95.78
39301;BME280;25019;42.626;23.380;2022-12-29T11:30:28;95246.38;;;7.25;95.47
39301;BME280;25019;42.626;23.380;2022-12-29T11:32:55;95210.06;;;7.00;95.53
39301;BME280;25019;42.626;23.380;2022-12-29T11:35:41;95245.97;;;7.34;95.19
39301;BME280;25019;42.626;23.380;2022-12-29T11:38:28;95251.22;;;7.41;94.50
39301;BME280;25019;42.626;23.380;2022-12-29T11:40:56;95248.38;;;7.49;94.18
39301;BME280;25019;42.626;23.380;2022-12-29T11:43:30;95233.31;;;7.43;93.37
39301;BME280;25019;42.626;23.380;2022-12-29T11:45:56;95174.28;;;7.11;93.37
39301;BME280;25019;42.626;23.380;2022-12-29T11:48:22;95241.63;;;7.60;93.17
39301;BME280;25019;42.626;23.380;2022-12-29T11:50:53;95239.16;;;7.65;93.15
39301;BME280;25019;42.626;23.380;2022-12-29T11:53:25;95177.66;;;7.31;92.67
39301;BME280;25019;42.626;23.380;2022-12-29T11:55:54;95236.69;;;7.77;92.33
39301;BME280;25019;42.626;23.380;2022-12-29T11:58:29;95235.00;;;7.83;92.26
39301;BME280;25019;42.626;23.380;2022-12-29T12:00:56;95238.25;;;7.92;92.00
39301;BME280;25019;42.626;23.380;2022-12-29T12:03:24;95237.00;;;7.94;91.67
39301;BME280;25019;42.626;23.380;2022-12-29T12:05:55;95236.97;;;8.01;91.96
39301;BME280;25019;42.626;23.380;2022-12-29T12:11:32;95152.75;;;7.59;90.92
39301;BME280;25019;42.626;23.380;2022-12-29T12:14:04;95229.97;;;8.20;90.71
39301;BME280;25019;42.626;23.380;2022-12-29T12:17:01;95227.50;;;8.25;90.18
39301;BME280;25019;42.626;23.380;2022-12-29T12:19:34;95228.34;;;8.19;89.59
39301;BME280;25019;42.626;23.380;2022-12-29T12:22:41;95219.38;;;8.20;89.14
39301;BME280;25019;42.626;23.380;2022-12-29T12:25:29;95216.34;;;8.17;89.79
39301;BME280;25019;42.626;23.380;2022-12-29T12:28:00;95221.22;;;8.20;89.57
39301;BME280;25019;42.626;23.380;2022-12-29T12:30:37;95218.78;;;8.18;89.14
39301;BME280;25019;42.626;23.380;2022-12-29T12:33:16;95202.75;;;8.06;89.34
39301;BME280;25019;42.626;23.380;2022-12-29T12:36:04;95215.56;;;8.09;89.25
39301;BME280;25019;42.626;23.380;2022-12-29T12:39:06;95218.41;;;8.15;88.92
39301;BME280;25019;42.626;23.380;2022-12-29T12:47:37;95212.00;;;8.29;87.87
39301;BME280;25019;42.626;23.380;2022-12-29T12:50:32;95210.72;;;8.38;87.45
39301;BME280;25019;42.626;23.380;2022-12-29T13:14:29;95204.59;;;8.38;87.99
39301;BME280;25019;42.626;23.380;2022-12-29T13:17:17;95198.31;;;8.32;88.34
39301;BME280;25019;42.626;23.380;2022-12-29T13:23:13;95203.63;;;8.32;89.14
39301;BME280;25019;42.626;23.380;2022-12-29T13:25:43;95217.81;;;8.38;88.26
39301;BME280;25019;42.626;23.380;2022-12-29T13:29:12;95220.44;;;8.45;87.85
39301;BME280;25019;42.626;23.380;2022-12-29T13:31:30;95213.38;;;8.38;87.71
39301;BME280;25019;42.626;23.380;2022-12-29T13:34:37;95223.09;;;8.45;87.71
39301;BME280;25019;42.626;23.380;2022-12-29T13:37:15;95127.00;;;7.87;87.43
39301;BME280;25019;42.626;23.380;2022-12-29T13:39:51;95196.53;;;8.26;88.13
39301;BME280;25019;42.626;23.380;2022-12-29T13:42:19;95223.69;;;8.47;87.94
39301;BME280;25019;42.626;23.380;2022-12-29T13:44:53;95212.25;;;8.53;87.69
39301;BME280;25019;42.626;23.380;2022-12-29T13:50:03;95214.31;;;8.51;87.45
39301;BME280;25019;42.626;23.380;2022-12-29T13:55:40;95162.16;;;7.87;89.21
39301;BME280;25019;42.626;23.380;2022-12-29T13:58:32;95211.81;;;8.24;89.40
39301;BME280;25019;42.626;23.380;2022-12-29T14:01:14;95210.19;;;8.23;89.82
39301;BME280;25019;42.626;23.380;2022-12-29T14:03:49;95198.88;;;8.09;90.28
39301;BME280;25019;42.626;23.380;2022-12-29T14:06:18;95213.59;;;8.30;89.99
39301;BME280;25019;42.626;23.380;2022-12-29T14:08:46;95178.78;;;8.01;90.09
39301;BME280;25019;42.626;23.380;2022-12-29T14:11:14;95226.16;;;8.42;90.13
39301;BME280;25019;42.626;23.380;2022-12-29T14:13:43;95217.44;;;8.34;90.50
39301;BME280;25019;42.626;23.380;2022-12-29T14:16:28;95220.41;;;8.19;91.32
39301;BME280;25019;42.626;23.380;2022-12-29T14:18:56;95225.03;;;8.24;90.98
39301;BME280;25019;42.626;23.380;2022-12-29T14:21:25;95224.47;;;8.22;91.22
39301;BME280;25019;42.626;23.380;2022-12-29T14:24:27;95221.47;;;8.12;91.80
39301;BME280;25019;42.626;23.380;2022-12-29T14:26:46;95104.50;;;7.25;92.32
39301;BME280;25019;42.626;23.380;2022-12-29T14:31:50;95222.25;;;7.73;93.11
39301;BME280;25019;42.626;23.380;2022-12-29T14:34:27;95231.19;;;7.72;94.35
39301;BME280;25019;42.626;23.380;2022-12-29T14:36:55;95243.81;;;7.77;94.19
39301;BME280;25019;42.626;23.380;2022-12-29T14:39:41;95249.28;;;7.75;94.67
39301;BME280;25019;42.626;23.380;2022-12-29T14:47:23;95245.84;;;7.75;94.64
39301;BME280;25019;42.626;23.380;2022-12-29T14:49:51;95248.69;;;7.73;95.20
39301;BME280;25019;42.626;23.380;2022-12-29T14:52:19;95248.31;;;7.70;95.06
39301;BME280;25019;42.626;23.380;2022-12-29T14:57:22;95243.91;;;7.50;95.90
39301;BME280;25019;42.626;23.380;2022-12-29T14:59:53;95243.50;;;7.40;97.45
39301;BME280;25019;42.626;23.380;2022-12-29T15:02:24;95246.78;;;7.28;98.01
39301;BME280;25019;42.626;23.380;2022-12-29T15:04:53;95250.88;;;7.24;98.05
39301;BME280;25019;42.626;23.380;2022-12-29T15:07:23;95238.91;;;7.08;98.93
39301;BME280;25019;42.626;23.380;2022-12-29T15:09:58;95251.91;;;7.03;99.75
39301;BME280;25019;42.626;23.380;2022-12-29T15:14:56;95192.84;;;6.50;100.00